createdAt,value
2019-01-17T01:22:13.439Z,84.68
2019-01-17T01:25:17.126Z,85.68
2019-01-17T01:28:28.210Z,85.91
2019-01-17T01:35:09.291Z,84.71
2019-01-17T01:38:46.141Z,85.18
2019-01-17T01:45:40.167Z,84.31
2019-01-17T01:48:28.121Z,85.07
2019-01-17T01:54:42.252Z,85.69
2019-01-17T01:57:36.966Z,85.70
2019-01-17T02:00:32.623Z,84.71
2019-01-17T02:03:52.712Z,85.81
2019-01-17T02:09:05.674Z,85.05
2019-01-17T02:11:44.018Z,84.78
2019-01-17T02:14:26.901Z,83.90
2019-01-17T02:17:35.345Z,84.46
2019-01-17T02:20:29.281Z,83.62
2019-01-17T02:23:42.034Z,82.57
2019-01-17T02:39:28.354Z,84.24
2019-01-17T02:42:10.140Z,84.94
2019-01-17T02:44:44.066Z,84.70
2019-01-17T02:47:20.072Z,83.32
2019-01-17T02:49:50.532Z,83.04
2019-01-17T02:52:26.839Z,84.07
2019-01-17T02:54:55.771Z,83.50
2019-01-17T02:57:27.288Z,83.06
2019-01-17T02:59:55.874Z,82.60
2019-01-17T03:02:27.647Z,83.97
2019-01-17T03:04:58.763Z,83.04
2019-01-17T03:07:30.041Z,83.75
2019-01-17T03:10:00.389Z,83.21
2019-01-17T03:12:30.355Z,83.64
2019-01-17T03:15:03.520Z,84.13
2019-01-17T03:17:32.152Z,83.86
2019-01-17T03:20:00.584Z,83.57
2019-01-17T03:22:31.900Z,83.46
2019-01-17T03:25:02.625Z,83.21
2019-01-17T03:27:35.011Z,83.25
2019-01-17T03:30:07.500Z,82.65
2019-01-17T03:32:36.121Z,83.02
2019-01-17T03:35:06.397Z,83.15
2019-01-17T03:37:41.820Z,83.45
2019-01-17T03:40:10.178Z,83.31
2019-01-17T03:42:44.110Z,83.54
2019-01-17T03:45:12.575Z,83.32
2019-01-17T03:47:41.108Z,83.93
2019-01-17T03:50:10.653Z,83.80
2019-01-17T03:52:42.403Z,82.65
2019-01-17T03:55:12.264Z,82.84
2019-01-17T03:57:40.595Z,83.24
2019-01-17T04:00:10.471Z,82.72
2019-01-17T04:02:38.924Z,82.79
2019-01-17T04:05:07.298Z,82.79
2019-01-17T04:07:35.540Z,83.05
2019-01-17T04:10:03.948Z,83.51
2019-01-17T04:12:32.203Z,82.80
2019-01-17T04:15:00.457Z,82.95
2019-01-17T04:17:28.774Z,83.16
2019-01-17T04:19:57.163Z,83.11
2019-01-17T04:22:25.408Z,84.13
2019-01-17T04:24:57.287Z,84.05
2019-01-17T04:27:23.595Z,83.27
2019-01-17T04:29:51.947Z,83.15
2019-01-17T04:32:20.398Z,83.27
2019-01-17T04:34:48.674Z,83.51
2019-01-17T04:37:16.992Z,83.80
2019-01-17T04:39:45.349Z,83.80
2019-01-17T04:42:13.677Z,84.38
2019-01-17T04:44:41.998Z,84.16
2019-01-17T04:47:10.393Z,84.22
2019-01-17T04:49:38.779Z,84.30
2019-01-17T04:52:07.054Z,84.65
2019-01-17T04:54:35.423Z,84.39
2019-01-17T04:57:03.619Z,83.81
2019-01-17T04:59:31.959Z,83.73
2019-01-17T05:02:00.302Z,83.90
2019-01-17T05:04:28.576Z,84.20
2019-01-17T05:06:56.839Z,84.06
2019-01-17T05:09:25.174Z,84.07
2019-01-17T05:11:53.537Z,84.15
2019-01-17T05:14:21.864Z,84.35
2019-01-17T05:16:50.247Z,84.10
2019-01-17T05:19:18.542Z,83.49
2019-01-17T05:21:46.913Z,84.17
2019-01-17T05:24:15.234Z,84.73
2019-01-17T05:26:43.475Z,84.31
2019-01-17T05:29:11.713Z,84.11
2019-01-17T05:31:40.079Z,83.84
2019-01-17T05:34:08.329Z,84.95
2019-01-17T05:36:36.627Z,84.40
2019-01-17T05:39:06.767Z,84.59
2019-01-17T05:41:35.079Z,84.28
2019-01-17T05:44:03.337Z,84.35
2019-01-17T05:46:31.836Z,83.90
2019-01-17T05:49:00.137Z,84.96
2019-01-17T05:51:28.413Z,84.53
2019-01-17T05:53:56.867Z,84.82
2019-01-17T05:56:25.175Z,84.94
2019-01-17T05:58:53.431Z,84.76
2019-01-17T06:01:21.833Z,84.56
2019-01-17T06:03:50.123Z,84.51
2019-01-17T06:06:18.405Z,84.10
2019-01-17T06:08:46.790Z,84.14
2019-01-17T06:11:15.100Z,84.82
2019-01-17T06:13:43.332Z,84.66
2019-01-17T06:16:11.915Z,85.00
2019-01-17T06:18:40.213Z,85.26
2019-01-17T06:21:08.471Z,84.84
2019-01-17T06:23:38.707Z,84.23
2019-01-17T06:26:07.039Z,84.68
2019-01-17T06:28:56.463Z,84.67
2019-01-17T06:31:28.076Z,85.02
2019-01-17T06:33:58.806Z,84.12
2019-01-17T06:36:38.565Z,84.06
2019-01-17T06:39:09.768Z,83.65
2019-01-17T06:41:40.793Z,83.73
2019-01-17T06:44:20.253Z,84.06
2019-01-17T06:46:57.724Z,83.86
2019-01-17T06:50:09.487Z,83.58
2019-01-17T06:52:50.122Z,84.01
2019-01-17T06:55:37.421Z,83.90
2019-01-17T07:01:21.299Z,83.72
2019-01-17T07:04:10.933Z,83.15
2019-01-17T07:06:41.055Z,83.72
2019-01-17T07:09:15.853Z,83.35
2019-01-17T07:11:45.721Z,83.47
2019-01-17T07:14:14.591Z,83.60
2019-01-17T07:16:43.330Z,84.32
2019-01-17T07:19:13.772Z,84.01
2019-01-17T07:21:47.144Z,84.17
2019-01-17T07:24:21.596Z,84.60
2019-01-17T07:26:51.422Z,84.54
2019-01-17T07:29:20.146Z,84.07
2019-01-17T07:31:50.032Z,84.30
2019-01-17T07:34:19.436Z,84.63
2019-01-17T07:36:49.925Z,84.37
2019-01-17T07:39:18.972Z,84.71
2019-01-17T07:41:48.067Z,84.05
2019-01-17T07:44:16.688Z,83.70
2019-01-17T07:46:45.490Z,84.18
2019-01-17T07:49:16.905Z,84.57
2019-01-17T07:51:45.733Z,83.97
2019-01-17T07:54:14.920Z,83.66
2019-01-17T07:56:43.610Z,84.59
2019-01-17T07:59:12.234Z,84.38
2019-01-17T08:01:41.971Z,84.71
2019-01-17T08:04:10.878Z,84.43
2019-01-17T08:06:40.481Z,84.68
2019-01-17T08:09:10.098Z,85.36
2019-01-17T08:11:39.076Z,84.90
2019-01-17T08:14:07.731Z,85.11
2019-01-17T08:16:36.667Z,85.38
2019-01-17T08:19:05.175Z,84.90
2019-01-17T08:21:33.840Z,84.83
2019-01-17T08:24:02.547Z,84.59
2019-01-17T08:26:32.093Z,84.96
2019-01-17T08:29:00.587Z,84.45
2019-01-17T08:31:29.182Z,84.88
2019-01-17T08:33:57.752Z,85.09
2019-01-17T08:36:26.270Z,84.34
2019-01-17T08:38:55.291Z,85.15
2019-01-17T08:41:23.748Z,84.63
2019-01-17T08:43:52.255Z,84.80
2019-01-17T08:46:20.818Z,84.06
2019-01-17T08:48:49.302Z,84.64
2019-01-17T08:51:17.768Z,84.26
2019-01-17T08:53:46.387Z,84.27
2019-01-17T08:56:14.820Z,84.75
2019-01-17T08:58:43.315Z,84.97
2019-01-17T09:01:11.868Z,84.71
2019-01-17T09:03:40.370Z,84.87
2019-01-17T09:06:08.759Z,84.83
2019-01-17T09:08:37.338Z,84.75
2019-01-17T09:11:06.162Z,85.14
2019-01-17T09:13:34.616Z,84.85
2019-01-17T09:16:03.103Z,85.04
2019-01-17T09:18:31.491Z,84.85
2019-01-17T09:20:59.963Z,85.06
2019-01-17T09:23:28.523Z,84.86
2019-01-17T09:25:57.005Z,84.73
2019-01-17T09:28:26.129Z,84.38
2019-01-17T09:30:57.632Z,84.09
2019-01-17T09:33:27.015Z,84.61
2019-01-17T09:35:55.427Z,84.21
2019-01-17T09:38:24.080Z,84.39
2019-01-17T09:40:52.557Z,84.02
2019-01-17T09:43:20.960Z,84.53
2019-01-17T09:45:49.548Z,84.22
2019-01-17T09:48:18.042Z,84.06
2019-01-17T09:50:46.565Z,83.40
2019-01-17T09:55:45.850Z,84.18
2019-01-17T09:58:14.915Z,84.35
2019-01-17T10:00:43.857Z,84.60
2019-01-17T10:03:18.144Z,84.72
2019-01-17T10:05:50.133Z,84.57
2019-01-17T10:08:35.008Z,84.32
2019-01-17T10:11:06.898Z,84.87
2019-01-17T10:14:03.992Z,84.90
2019-01-17T10:16:50.664Z,84.55
2019-01-17T10:19:46.346Z,84.84
2019-01-17T10:22:47.300Z,84.62
2019-01-17T10:25:58.068Z,84.22
2019-01-17T10:29:02.323Z,84.34
2019-01-17T10:34:54.551Z,84.46
2019-01-17T10:41:13.038Z,84.19
2019-01-17T10:44:34.715Z,84.43
2019-01-17T10:47:22.255Z,84.16
2019-01-17T10:50:09.287Z,84.74
2019-01-17T10:53:28.257Z,84.45
2019-01-17T10:56:41.279Z,84.70
2019-01-17T10:59:43.228Z,84.74
2019-01-17T12:46:41.650Z,83.09
2019-01-17T12:49:24.618Z,82.90
2019-01-17T12:56:22.022Z,81.92
2019-01-17T13:02:44.055Z,82.29
2019-01-17T13:05:27.822Z,80.86
2019-01-17T13:43:16.191Z,78.30
2019-01-17T14:09:09.879Z,78.77
2019-01-17T14:15:59.051Z,78.12
2019-01-17T14:53:36.848Z,81.09
2019-01-17T15:00:01.179Z,81.17
2019-01-17T15:03:00.705Z,81.07
2019-01-17T15:05:58.687Z,81.35
2019-01-17T15:08:41.711Z,81.09
2019-01-17T15:11:26.078Z,81.01
2019-01-17T15:13:55.753Z,81.06
2019-01-17T15:16:27.552Z,80.88
2019-01-17T15:18:57.649Z,80.66
2019-01-17T15:21:30.177Z,81.32
2019-01-17T15:23:59.513Z,81.40
2019-01-17T15:26:28.526Z,81.46
2019-01-17T15:28:57.263Z,80.92
2019-01-17T15:31:27.694Z,81.84
2019-01-17T15:33:56.345Z,81.13
2019-01-17T15:36:24.804Z,81.11
2019-01-17T15:38:53.727Z,81.91
2019-01-17T15:41:28.383Z,81.60
2019-01-17T15:43:52.172Z,81.59
2019-01-17T15:46:20.575Z,81.46
2019-01-17T15:48:49.043Z,81.29
2019-01-17T15:51:17.331Z,81.49
2019-01-17T15:53:45.587Z,81.02
2019-01-17T15:56:14.036Z,81.94
2019-01-17T15:58:42.297Z,81.83
2019-01-17T16:01:10.553Z,82.06
2019-01-17T16:03:38.909Z,81.88
2019-01-17T16:06:07.150Z,82.35
2019-01-17T16:08:35.424Z,81.77
2019-01-17T16:11:03.800Z,81.45
2019-01-17T16:13:32.058Z,82.17
2019-01-17T16:16:00.339Z,82.13
2019-01-17T16:18:28.759Z,82.07
2019-01-17T16:20:57.055Z,81.21
2019-01-17T16:23:25.307Z,80.30
2019-01-17T16:25:53.685Z,81.52
2019-01-17T16:28:22.013Z,81.10
2019-01-17T16:30:50.290Z,81.25
2019-01-17T16:33:18.647Z,81.01
2019-01-17T16:35:47.009Z,81.25
2019-01-17T16:38:15.335Z,80.95
2019-01-17T16:40:43.869Z,80.96
2019-01-17T16:43:12.905Z,80.40
2019-01-17T16:45:41.279Z,81.47
2019-01-17T16:48:09.999Z,81.62
2019-01-17T16:50:38.514Z,81.04
2019-01-17T16:53:06.845Z,81.45
2019-01-17T16:55:35.812Z,81.00
2019-01-17T16:58:04.213Z,81.16
2019-01-17T17:00:42.652Z,81.24
2019-01-17T17:03:10.951Z,81.04
2019-01-17T17:05:39.271Z,80.87
2019-01-17T17:08:07.672Z,80.64
2019-01-17T17:10:36.906Z,80.39
2019-01-17T17:13:05.183Z,80.24
2019-01-17T17:15:33.584Z,79.63
2019-01-17T17:18:01.913Z,80.20
2019-01-17T17:20:30.237Z,80.08
2019-01-17T17:22:58.767Z,80.03
2019-01-17T17:25:27.182Z,80.99
2019-01-17T17:27:55.892Z,79.59
2019-01-17T17:30:25.160Z,79.34
2019-01-17T17:32:53.680Z,80.36
2019-01-17T17:35:22.055Z,79.74
2019-01-17T17:37:51.266Z,79.43
2019-01-17T17:40:21.250Z,79.02
2019-01-17T17:42:51.238Z,79.39
2019-01-17T17:45:19.952Z,79.24
2019-01-17T17:47:49.111Z,78.71
2019-01-17T17:50:19.540Z,78.29
2019-01-17T17:52:48.341Z,79.14
2019-01-17T17:55:16.771Z,78.50
2019-01-17T17:57:45.977Z,78.22
2019-01-17T18:00:17.488Z,77.98
2019-01-17T18:02:46.109Z,77.92
2019-01-17T18:05:14.793Z,78.65
2019-01-17T18:07:43.511Z,78.27
2019-01-17T18:10:12.703Z,78.37
2019-01-17T18:12:41.275Z,78.52
2019-01-17T18:15:10.788Z,78.39
2019-01-17T18:17:39.438Z,78.00
2019-01-17T18:20:08.660Z,77.88
2019-01-17T18:22:37.180Z,77.99
2019-01-17T18:25:06.137Z,77.48
2019-01-17T18:27:34.739Z,77.51
2019-01-17T18:30:03.802Z,78.18
2019-01-17T18:32:33.486Z,78.95
2019-01-17T18:35:05.400Z,79.22
2019-01-17T18:37:45.800Z,78.44
2019-01-17T18:40:41.008Z,79.10
2019-01-17T18:46:18.405Z,78.93
2019-01-17T18:49:26.017Z,78.93
2019-01-17T18:52:10.574Z,79.08
2019-01-17T18:55:25.664Z,79.14
2019-01-17T19:01:31.233Z,78.70
2019-01-17T19:11:37.940Z,79.11
2019-01-17T19:31:54.427Z,79.58
2019-01-17T19:34:23.032Z,79.06
2019-01-17T19:36:51.391Z,79.44
2019-01-17T19:39:20.076Z,79.73
2019-01-17T19:45:47.253Z,79.05
2019-01-17T19:48:15.599Z,79.46
2019-01-17T19:50:44.011Z,79.45
2019-01-17T19:53:13.363Z,79.45
2019-01-17T19:55:41.987Z,79.81
2019-01-17T19:58:10.290Z,79.60
2019-01-17T20:00:38.675Z,79.87
2019-01-17T20:03:07.266Z,79.55
2019-01-17T20:05:35.846Z,79.40
2019-01-17T20:08:04.470Z,80.56
2019-01-17T20:10:33.672Z,79.41
2019-01-17T20:13:02.025Z,80.43
2019-01-17T20:15:30.380Z,79.48
2019-01-17T20:17:58.693Z,79.86
2019-01-17T20:20:31.804Z,80.24
2019-01-17T20:22:57.291Z,79.43
2019-01-17T20:25:25.815Z,79.41
2019-01-17T20:27:57.265Z,78.93
2019-01-17T20:30:30.252Z,79.43
2019-01-17T20:32:59.796Z,78.70
2019-01-17T20:36:07.255Z,79.22
2019-01-17T20:38:37.038Z,78.81
2019-01-17T20:41:08.195Z,79.40
2019-01-17T20:43:36.571Z,79.01
2019-01-17T20:46:07.045Z,78.43
2019-01-17T20:48:37.898Z,77.99
2019-01-17T20:51:06.380Z,78.56
2019-01-17T20:53:34.803Z,78.06
2019-01-17T20:56:03.262Z,78.30
2019-01-17T20:58:32.955Z,78.01
2019-01-17T21:01:05.307Z,78.54
2019-01-17T21:03:33.616Z,77.99
2019-01-17T21:06:01.927Z,77.90
2019-01-17T21:08:30.392Z,78.20
2019-01-17T21:10:58.631Z,78.10
2019-01-17T21:13:27.043Z,78.04
2019-01-17T21:16:01.087Z,78.62
2019-01-17T21:18:25.261Z,78.19
2019-01-17T21:20:53.537Z,78.17
2019-01-17T21:23:21.959Z,78.30
2019-01-17T21:25:50.192Z,78.48
2019-01-17T21:28:18.459Z,78.33
2019-01-17T21:30:46.759Z,79.08
2019-01-17T21:33:15.023Z,78.25
2019-01-17T21:35:43.286Z,77.84
2019-01-17T21:38:11.677Z,78.75
2019-01-17T21:40:39.955Z,78.28
2019-01-17T21:43:08.213Z,79.04
2019-01-17T21:45:36.559Z,78.46
2019-01-17T21:48:04.799Z,78.47
2019-01-17T21:50:33.047Z,79.28
2019-01-17T21:53:01.461Z,78.96
2019-01-17T21:55:29.824Z,79.85
2019-01-17T21:57:58.063Z,79.00
2019-01-17T22:00:26.464Z,79.20
2019-01-17T22:02:54.731Z,78.84
2019-01-17T22:05:22.970Z,78.71
2019-01-17T22:07:51.356Z,77.66
2019-01-17T22:10:19.592Z,77.33
2019-01-17T22:12:47.836Z,77.64
2019-01-17T22:15:17.199Z,78.50
2019-01-17T22:17:45.440Z,76.95
2019-01-17T22:20:13.691Z,76.60
2019-01-17T22:22:42.085Z,77.35
2019-01-17T22:25:10.887Z,77.76
2019-01-17T22:27:39.137Z,77.38
2019-01-17T22:30:09.231Z,78.20
2019-01-17T22:32:37.471Z,77.60
2019-01-17T22:35:05.807Z,77.39
2019-01-17T22:37:34.213Z,77.56
2019-01-17T22:40:02.469Z,77.41
2019-01-17T22:42:30.692Z,77.80
2019-01-17T22:44:58.991Z,78.30
2019-01-17T22:47:27.197Z,78.13
2019-01-17T22:49:55.447Z,77.92
2019-01-17T22:52:23.757Z,78.02
2019-01-17T22:54:51.983Z,78.31
2019-01-17T22:57:20.331Z,77.06
2019-01-17T22:59:48.756Z,78.53
2019-01-17T23:02:17.009Z,77.11
2019-01-17T23:04:45.234Z,78.67
2019-01-17T23:07:13.621Z,78.88
2019-01-17T23:09:41.863Z,77.98
2019-01-17T23:12:10.111Z,79.03
2019-01-17T23:14:38.489Z,78.83
2019-01-17T23:17:06.767Z,78.34
2019-01-17T23:19:35.019Z,77.66
2019-01-17T23:22:03.315Z,77.21
2019-01-17T23:24:31.540Z,77.66
2019-01-17T23:26:59.815Z,77.33
2019-01-17T23:29:28.135Z,77.73
2019-01-17T23:31:56.371Z,78.26
2019-01-17T23:34:24.640Z,78.62
2019-01-17T23:36:52.972Z,77.36
2019-01-17T23:39:21.266Z,78.68
2019-01-17T23:41:49.450Z,78.11
2019-01-17T23:44:17.744Z,78.54
2019-01-17T23:46:46.007Z,78.97
2019-01-17T23:49:14.276Z,79.01
2019-01-17T23:51:42.655Z,78.43
2019-01-17T23:54:10.920Z,78.40
2019-01-17T23:56:39.198Z,78.02
2019-01-17T23:59:07.734Z,78.21
